Time;durP1;ratioP1;P1;durP2;ratioP2;P2;SDS_P1;SDS_P2;PMS_P1;PMS_P2;Temp;Humidity;BMP_temperature;BMP_pressure;BME280_temperature;BME280_humidity;BME280_pressure;Samples;Min_cycle;Max_cycle;Signal;HPM_P1;HPM_P2
2021/05/16 00:02:10;;;;;;;0.30;0.30;;;;;;;9.40;95.07;100338.41;1745088;80;21042;-45
2021/05/16 00:04:55;;;;;;;0.03;0.03;;;;;;;9.34;95.12;100349.03;1738742;81;21064;-45
2021/05/16 00:07:40;;;;;;;0.00;0.00;;;;;;;9.28;95.28;100340.05;1687617;84;21099;-45
2021/05/16 00:10:25;;;;;;;0.25;0.25;;;;;;;9.23;95.54;100337.32;1703903;82;21167;-45
2021/05/16 00:13:11;;;;;;;0.30;0.30;;;;;;;9.18;95.79;100337.33;1699015;82;21053;-40
2021/05/16 00:15:56;;;;;;;0.53;0.28;;;;;;;9.15;96.08;100331.03;1710330;81;21563;-46
2021/05/16 00:18:43;;;;;;;0.33;0.33;;;;;;;9.12;96.21;100336.48;1764944;80;20979;-40
2021/05/16 00:21:27;;;;;;;0.10;0.10;;;;;;;9.09;96.28;100332.13;1746190;81;21103;-42
2021/05/16 00:24:12;;;;;;;0.10;0.10;;;;;;;9.06;96.25;100335.41;1756686;80;21481;-40
2021/05/16 00:26:57;;;;;;;0.15;0.15;;;;;;;9.00;96.17;100336.77;1701043;83;21759;-45
2021/05/16 00:29:42;;;;;;;1.75;0.15;;;;;;;8.96;96.22;100332.95;1699346;83;21200;-45
2021/05/16 00:32:26;;;;;;;0.37;0.37;;;;;;;8.90;96.37;100324.51;1766532;80;21561;-42
2021/05/16 00:35:15;;;;;;;0.23;0.23;;;;;;;8.86;96.53;100328.85;1710195;82;21075;-42
2021/05/16 00:38:01;;;;;;;0.00;0.00;;;;;;;8.83;96.64;100327.48;1756483;80;21069;-46
2021/05/16 00:40:45;;;;;;;0.00;0.00;;;;;;;8.80;96.74;100335.37;1758456;80;21032;-40
2021/05/16 00:43:31;;;;;;;1.75;0.20;;;;;;;8.74;96.75;100335.91;1756302;80;21092;-40
2021/05/16 00:46:16;;;;;;;0.10;0.10;;;;;;;8.70;96.92;100339.44;1732522;81;21856;-40
2021/05/16 00:49:02;;;;;;;1.20;0.20;;;;;;;8.65;96.95;100336.70;1714970;82;20981;-46
2021/05/16 00:51:48;;;;;;;0.10;0.10;;;;;;;8.59;96.92;100328.53;1734530;81;20894;-45
2021/05/16 00:54:33;;;;;;;0.08;0.08;;;;;;;8.56;96.89;100337.24;1688887;83;21051;-39
2021/05/16 00:57:19;;;;;;;0.20;0.20;;;;;;;8.50;96.86;100334.22;1757896;80;21048;-45
2021/05/16 01:00:07;;;;;;;0.10;0.10;;;;;;;8.46;97.04;100337.22;1706765;82;21070;-45
2021/05/16 01:02:52;;;;;;;0.10;0.10;;;;;;;8.41;97.21;100335.84;1744997;80;21057;-45
2021/05/16 01:05:38;;;;;;;0.08;0.08;;;;;;;8.36;97.39;100338.52;1734785;81;21140;-40
2021/05/16 01:08:23;;;;;;;0.10;0.10;;;;;;;8.32;97.52;100337.41;1743864;80;21031;-45
2021/05/16 01:11:08;;;;;;;0.03;0.03;;;;;;;8.30;97.72;100339.58;1723400;82;21083;-40
2021/05/16 01:13:53;;;;;;;0.33;0.33;;;;;;;8.27;98.01;100339.56;1688839;82;21039;-45
2021/05/16 01:16:37;;;;;;;0.20;0.20;;;;;;;8.25;98.11;100345.00;1716977;82;21073;-40
2021/05/16 01:19:22;;;;;;;0.00;0.00;;;;;;;8.22;98.31;100345.55;1706765;82;21089;-45
2021/05/16 01:22:08;;;;;;;0.10;0.10;;;;;;;8.17;98.43;100338.98;1735435;81;21130;-46
2021/05/16 01:24:53;;;;;;;0.08;0.08;;;;;;;8.16;98.44;100341.44;1758628;81;21093;-45
2021/05/16 01:27:38;;;;;;;0.20;0.20;;;;;;;8.12;98.48;100340.33;1731418;82;21524;-40
2021/05/16 01:30:24;;;;;;;0.17;0.17;;;;;;;8.08;98.59;100335.67;1677963;82;21101;-39
2021/05/16 01:33:09;;;;;;;0.10;0.10;;;;;;;8.08;98.83;100341.92;1673930;83;21004;-45
2021/05/16 01:35:55;;;;;;;0.25;0.20;;;;;;;8.06;98.97;100344.12;1695922;83;21635;-45
2021/05/16 01:38:41;;;;;;;0.20;0.20;;;;;;;8.03;99.13;100344.63;1703203;83;21555;-41
2021/05/16 01:41:27;;;;;;;0.10;0.10;;;;;;;8.02;99.26;100344.37;1689131;83;21135;-45
2021/05/16 01:44:15;;;;;;;0.20;0.20;;;;;;;7.99;99.41;100343.54;1724623;81;21051;-40
2021/05/16 01:47:02;;;;;;;0.68;0.68;;;;;;;7.98;99.52;100341.89;1754554;80;21029;-45
2021/05/16 01:49:51;;;;;;;0.00;0.00;;;;;;;7.94;99.44;100342.97;1739853;81;21067;-40
2021/05/16 01:52:37;;;;;;;0.15;0.15;;;;;;;7.88;99.31;100350.81;1753996;80;21060;-45
2021/05/16 01:55:21;;;;;;;0.08;0.08;;;;;;;7.83;99.45;100344.53;1734779;81;21044;-45
2021/05/16 01:58:06;;;;;;;0.10;0.10;;;;;;;7.80;99.59;100346.42;1761304;80;21085;-44
2021/05/16 02:00:51;;;;;;;0.30;0.30;;;;;;;7.78;99.66;100345.31;1759018;80;21587;-44
2021/05/16 02:03:44;;;;;;;0.10;0.10;;;;;;;7.72;99.34;100347.20;1743714;81;21063;-40
2021/05/16 02:06:30;;;;;;;0.00;0.00;;;;;;;7.61;98.96;100341.95;1704441;82;21074;-46
2021/05/16 02:09:16;;;;;;;0.00;0.00;;;;;;;7.52;98.97;100348.44;1746488;81;21112;-45
2021/05/16 02:12:04;;;;;;;0.10;0.10;;;;;;;7.45;99.18;100350.02;1750337;80;21160;-46
2021/05/16 02:14:50;;;;;;;0.50;0.50;;;;;;;7.44;99.54;100352.98;1764018;80;21026;-40
2021/05/16 02:17:36;;;;;;;0.03;0.03;;;;;;;7.42;99.92;100351.90;1748169;80;20990;-40
2021/05/16 02:20:21;;;;;;;0.47;0.40;;;;;;;7.43;100.00;100353.52;1751407;80;21030;-40
2021/05/16 02:23:06;;;;;;;0.15;0.15;;;;;;;7.46;100.00;100356.26;1739980;81;21042;-41
2021/05/16 02:25:53;;;;;;;0.10;0.10;;;;;;;7.50;100.00;100358.75;1739588;81;21075;-45
2021/05/16 02:28:40;;;;;;;0.20;0.20;;;;;;;7.56;100.00;100358.23;1703141;83;21063;-40
2021/05/16 02:31:25;;;;;;;0.85;0.17;;;;;;;7.60;100.00;100362.89;1710971;82;21115;-40
2021/05/16 02:34:11;;;;;;;0.10;0.10;;;;;;;7.64;100.00;100365.38;1720054;81;21030;-45
2021/05/16 02:36:58;;;;;;;0.53;0.30;;;;;;;7.71;100.00;100364.58;1758204;80;21010;-44
2021/05/16 02:39:44;;;;;;;0.33;0.33;;;;;;;7.78;100.00;100363.55;1750222;80;21086;-45
2021/05/16 02:42:29;;;;;;;0.20;0.20;;;;;;;7.84;100.00;100355.68;1748730;81;21046;-45
2021/05/16 02:45:15;;;;;;;0.35;0.35;;;;;;;7.90;100.00;100360.89;1735988;82;21050;-45
2021/05/16 02:48:00;;;;;;;0.30;0.30;;;;;;;7.98;100.00;100356.30;1753447;80;21044;-45
2021/05/16 02:50:46;;;;;;;1.40;0.40;;;;;;;8.10;100.00;100362.09;1701300;82;21081;-45
2021/05/16 02:53:33;;;;;;;0.20;0.20;;;;;;;8.21;100.00;100357.50;1705825;82;21100;-45
2021/05/16 02:56:20;;;;;;;0.10;0.10;;;;;;;8.29;100.00;100362.45;1703829;82;21069;-46
2021/05/16 02:59:05;;;;;;;0.10;0.10;;;;;;;8.36;100.00;100358.95;1720232;82;21074;-45
2021/05/16 03:01:51;;;;;;;0.40;0.40;;;;;;;8.45;100.00;100362.80;1688208;82;21034;-46
2021/05/16 03:04:37;;;;;;;0.25;0.25;;;;;;;8.56;100.00;100363.12;1711951;82;21612;-46
2021/05/16 03:07:22;;;;;;;0.65;0.62;;;;;;;8.72;100.00;100361.78;1699192;84;21077;-46
2021/05/16 03:10:08;;;;;;;0.47;0.20;;;;;;;8.86;100.00;100354.73;1698724;84;21242;-40
2021/05/16 03:12:53;;;;;;;0.30;0.30;;;;;;;9.02;100.00;100364.55;1711971;82;21087;-46
2021/05/16 03:15:38;;;;;;;0.30;0.30;;;;;;;9.17;100.00;100364.30;1735046;81;21012;-45
2021/05/16 03:18:23;;;;;;;0.75;0.45;;;;;;;9.29;100.00;100355.30;1746418;80;21037;-45
2021/05/16 03:21:09;;;;;;;0.60;0.30;;;;;;;9.42;100.00;100356.13;1718208;81;21070;-40
2021/05/16 03:23:55;;;;;;;0.10;0.10;;;;;;;9.58;100.00;100356.11;1751931;80;21042;-46
2021/05/16 03:26:41;;;;;;;0.10;0.10;;;;;;;9.75;100.00;100359.35;1744308;81;21021;-42
2021/05/16 03:29:27;;;;;;;0.00;0.00;;;;;;;9.93;100.00;100355.77;1747031;80;21132;-43
2021/05/16 03:32:11;;;;;;;1.55;0.28;;;;;;;10.11;100.00;100356.51;1751105;80;21147;-41
2021/05/16 03:34:56;;;;;;;0.45;0.45;;;;;;;10.29;100.00;100357.31;1747353;80;21050;-45
2021/05/16 03:37:41;;;;;;;0.10;0.10;;;;;;;10.50;100.00;100354.47;1754039;80;21069;-46
2021/05/16 03:40:26;;;;;;;0.20;0.20;;;;;;;10.69;99.97;100355.46;1708645;82;20961;-46
2021/05/16 03:43:11;;;;;;;0.08;0.03;;;;;;;10.89;99.65;100360.53;1731021;80;21036;-41
2021/05/16 03:45:56;;;;;;;0.20;0.20;;;;;;;11.09;99.28;100364.48;1758319;80;21069;-41
2021/05/16 03:48:43;;;;;;;0.10;0.10;;;;;;;11.28;98.89;100366.55;1750181;81;21097;-46
2021/05/16 03:51:28;;;;;;;0.35;0.35;;;;;;;11.48;98.43;100377.31;1744669;80;21000;-46
2021/05/16 03:54:15;;;;;;;0.20;0.20;;;;;;;11.67;97.96;100371.11;1725850;81;21664;-42
2021/05/16 03:57:00;;;;;;;0.20;0.20;;;;;;;11.86;97.49;100372.02;1696905;83;21738;-46
2021/05/16 03:59:44;;;;;;;0.10;0.10;;;;;;;12.04;97.24;100378.16;1705492;83;21011;-46
2021/05/16 04:02:30;;;;;;;0.50;0.50;;;;;;;12.25;96.87;100377.92;1741424;81;21044;-41
2021/05/16 04:05:15;;;;;;;0.40;0.40;;;;;;;12.48;97.03;100378.44;1747477;80;21153;-41
2021/05/16 04:08:00;;;;;;;0.47;0.23;;;;;;;12.74;96.71;100374.56;1739557;80;21044;-46
2021/05/16 04:10:45;;;;;;;0.50;0.50;;;;;;;12.96;96.06;100372.05;1746856;80;21014;-46
2021/05/16 04:13:31;;;;;;;0.30;0.30;;;;;;;13.19;95.44;100374.42;1746265;80;21018;-41
2021/05/16 04:16:15;;;;;;;0.20;0.20;;;;;;;13.42;95.10;100370.52;1699697;83;21574;-40
2021/05/16 04:19:02;;;;;;;1.00;0.33;;;;;;;13.63;94.81;100377.30;1744104;81;21107;-40
2021/05/16 04:21:46;;;;;;;0.70;0.70;;;;;;;13.85;94.40;100378.57;1759817;80;21439;-41
2021/05/16 04:24:31;;;;;;;0.40;0.40;;;;;;;14.04;93.60;100370.23;1762761;81;22502;-41
2021/05/16 04:27:17;;;;;;;0.55;0.55;;;;;;;14.21;92.91;100370.44;1719771;81;21067;-41
2021/05/16 04:30:03;;;;;;;1.90;0.47;;;;;;;14.40;92.72;100368.39;1714594;81;21099;-46
2021/05/16 04:32:48;;;;;;;1.25;0.78;;;;;;;14.63;91.81;100369.86;1733317;82;21531;-46
2021/05/16 04:35:33;;;;;;;1.47;0.80;;;;;;;14.86;90.98;100366.63;1741474;81;21636;-41
2021/05/16 04:38:17;;;;;;;0.30;0.30;;;;;;;15.07;90.03;100373.83;1733741;80;21467;-45
2021/05/16 04:41:02;;;;;;;0.20;0.20;;;;;;;15.23;89.59;100376.48;1750824;80;21275;-46
2021/05/16 04:43:47;;;;;;;0.65;0.50;;;;;;;15.40;88.23;100377.14;1735544;82;21038;-46
2021/05/16 04:46:32;;;;;;;0.72;0.42;;;;;;;15.59;87.18;100377.52;1741022;80;21017;-41
2021/05/16 04:49:17;;;;;;;0.30;0.30;;;;;;;15.76;86.23;100383.16;1732428;81;21051;-46
2021/05/16 04:52:02;;;;;;;1.50;0.95;;;;;;;15.90;84.95;100381.12;1747889;81;20961;-41
2021/05/16 04:54:47;;;;;;;0.55;0.47;;;;;;;16.06;84.36;100383.47;1695870;83;20997;-46
2021/05/16 04:57:36;;;;;;;1.40;0.75;;;;;;;16.24;83.74;100376.88;1699199;83;21063;-41
2021/05/16 05:00:21;;;;;;;0.85;0.85;;;;;;;16.43;82.97;100374.43;1746698;80;20993;-45
2021/05/16 05:03:06;;;;;;;0.33;0.33;;;;;;;16.60;82.33;100373.09;1755135;80;22187;-40
2021/05/16 05:05:53;;;;;;;0.75;0.60;;;;;;;16.80;81.64;100380.53;1753963;80;21042;-41
2021/05/16 05:08:39;;;;;;;0.55;0.55;;;;;;;16.95;80.58;100375.92;1678938;83;21073;-46
2021/05/16 05:11:23;;;;;;;0.45;0.30;;;;;;;17.14;80.11;100377.80;1746920;81;22035;-46
2021/05/16 05:14:08;;;;;;;0.20;0.20;;;;;;;17.30;78.40;100375.91;1742651;80;21077;-46
2021/05/16 05:16:53;;;;;;;0.47;0.47;;;;;;;17.41;77.37;100372.48;1742756;81;22753;-46
2021/05/16 05:19:38;;;;;;;1.27;0.90;;;;;;;17.54;76.31;100372.05;1720679;81;21008;-40
2021/05/16 05:22:23;;;;;;;0.37;0.37;;;;;;;17.69;75.62;100372.68;1749134;80;21180;-46
2021/05/16 05:25:08;;;;;;;0.50;0.40;;;;;;;17.83;75.43;100367.80;1750984;80;21266;-40
2021/05/16 05:27:55;;;;;;;1.47;0.50;;;;;;;17.99;75.44;100373.01;1703059;82;21033;-46
2021/05/16 05:30:39;;;;;;;0.50;0.50;;;;;;;18.16;74.44;100369.36;1722648;80;21136;-41
2021/05/16 05:33:05;;;;;;;0.68;0.50;;;;;;;18.30;73.28;100364.16;1757528;80;21062;-46
2021/05/16 05:35:33;;;;;;;0.95;0.70;;;;;;;18.36;72.21;100365.03;1747275;81;21047;-40
2021/05/16 05:37:59;;;;;;;2.72;0.57;;;;;;;18.45;71.64;100361.65;1766962;80;21053;-46
2021/05/16 05:40:26;;;;;;;0.23;0.20;;;;;;;18.58;71.54;100363.92;1698541;82;21034;-46
2021/05/16 05:42:52;;;;;;;0.70;0.70;;;;;;;18.68;71.59;100368.27;1762520;80;21022;-46
2021/05/16 05:45:18;;;;;;;0.35;0.35;;;;;;;18.78;71.82;100365.13;1765985;80;21085;-46
2021/05/16 05:47:45;;;;;;;0.65;0.57;;;;;;;18.81;71.47;100369.98;1740064;80;21013;-41
2021/05/16 05:50:12;;;;;;;0.53;0.53;;;;;;;18.80;71.00;100370.33;1764650;80;21200;-40
2021/05/16 05:52:38;;;;;;;1.57;0.80;;;;;;;18.78;71.00;100372.63;1712652;83;21122;-46
2021/05/16 05:55:07;;;;;;;0.10;0.10;;;;;;;18.85;71.88;100375.67;1748641;81;21385;-44
2021/05/16 05:57:33;;;;;;;0.23;0.23;;;;;;;18.97;71.17;100377.70;1718459;81;21331;-40
2021/05/16 06:00:00;;;;;;;0.25;0.25;;;;;;;19.07;69.65;100375.91;1695397;83;21156;-46
2021/05/16 06:02:26;;;;;;;0.60;0.60;;;;;;;19.12;69.54;100384.01;1745489;80;21074;-46
2021/05/16 06:04:54;;;;;;;0.20;0.20;;;;;;;19.24;69.41;100388.22;1746476;80;21113;-42
2021/05/16 06:07:21;;;;;;;0.40;0.17;;;;;;;19.37;68.46;100382.16;1752823;80;21036;-40
2021/05/16 06:09:47;;;;;;;0.40;0.37;;;;;;;19.50;68.13;100390.73;1755561;80;21107;-41
2021/05/16 06:12:15;;;;;;;0.62;0.60;;;;;;;19.64;67.87;100389.64;1708097;83;21013;-46
2021/05/16 06:14:42;;;;;;;0.28;0.28;;;;;;;19.84;67.74;100392.15;1723160;81;21095;-41
2021/05/16 06:17:08;;;;;;;0.03;0.03;;;;;;;20.02;66.94;100392.75;1726596;81;21076;-46
2021/05/16 06:19:36;;;;;;;0.30;0.30;;;;;;;20.14;65.78;100396.92;1742828;81;21070;-41
2021/05/16 06:22:02;;;;;;;0.10;0.10;;;;;;;20.26;65.59;100398.33;1713493;82;21367;-46
2021/05/16 06:24:30;;;;;;;0.23;0.20;;;;;;;20.47;64.96;100396.80;1740153;81;21415;-41
2021/05/16 06:26:57;;;;;;;0.65;0.25;;;;;;;20.73;63.82;100395.67;1765987;81;21054;-41
2021/05/16 06:29:23;;;;;;;0.45;0.35;;;;;;;20.94;61.64;100386.59;1766357;80;21175;-46
2021/05/16 06:31:50;;;;;;;0.33;0.23;;;;;;;21.09;60.04;100387.02;1740729;79;21107;-46
2021/05/16 06:34:16;;;;;;;0.13;0.13;;;;;;;21.22;59.76;100387.22;1756739;80;21083;-45
2021/05/16 06:36:43;;;;;;;0.25;0.25;;;;;;;21.34;58.52;100378.00;1767112;80;21034;-46
2021/05/16 06:39:09;;;;;;;0.42;0.42;;;;;;;21.47;58.08;100380.42;1773444;79;21592;-46
2021/05/16 06:41:36;;;;;;;0.37;0.37;;;;;;;21.59;56.13;100378.75;1753955;80;21003;-42
2021/05/16 06:44:03;;;;;;;0.47;0.45;;;;;;;21.67;56.65;100372.21;1698375;83;21629;-41
2021/05/16 06:46:29;;;;;;;0.40;0.40;;;;;;;21.81;55.99;100370.38;1722444;81;21026;-47
2021/05/16 06:48:57;;;;;;;0.10;0.10;;;;;;;21.94;54.20;100379.47;1695142;83;21563;-47
2021/05/16 06:51:24;;;;;;;0.17;0.17;;;;;;;21.97;54.14;100374.58;1683808;84;21019;-41
2021/05/16 06:53:51;;;;;;;0.10;0.10;;;;;;;22.08;54.05;100374.25;1758496;80;21018;-46
2021/05/16 06:56:17;;;;;;;0.30;0.20;;;;;;;22.18;51.90;100379.86;1744854;80;21032;-47
2021/05/16 06:58:44;;;;;;;1.10;0.50;;;;;;;22.20;52.15;100376.97;1698617;82;21106;-47
2021/05/16 07:01:10;;;;;;;0.20;0.20;;;;;;;22.20;51.25;100380.34;1716574;81;21025;-40
2021/05/16 07:03:39;;;;;;;0.20;0.20;;;;;;;22.20;50.50;100376.97;1755815;80;21153;-40
2021/05/16 07:06:05;;;;;;;0.00;0.00;;;;;;;22.19;50.45;100379.51;1753602;80;21156;-41
2021/05/16 07:08:33;;;;;;;0.10;0.10;;;;;;;22.24;51.28;100372.30;1703241;83;21149;-47
2021/05/16 07:11:02;;;;;;;0.00;0.00;;;;;;;22.42;50.94;100372.73;1728225;82;21053;-41
2021/05/16 07:13:30;;;;;;;0.10;0.10;;;;;;;22.55;49.75;100377.59;1753248;79;21373;-42
2021/05/16 07:15:56;;;;;;;0.00;0.00;;;;;;;22.61;50.07;100384.52;1774896;80;21081;-47
2021/05/16 07:18:23;;;;;;;0.00;0.00;;;;;;;22.77;49.80;100385.86;1757127;80;21030;-46
2021/05/16 07:20:53;;;;;;;0.10;0.10;;;;;;;22.95;49.53;100382.09;1729283;80;21611;-40
2021/05/16 07:23:19;;;;;;;0.00;0.00;;;;;;;23.05;48.98;100380.74;1760330;79;21022;-47
2021/05/16 07:25:46;;;;;;;0.10;0.10;;;;;;;23.11;48.78;100371.70;1706991;82;21153;-47
2021/05/16 07:28:13;;;;;;;0.10;0.00;;;;;;;23.21;48.57;100372.30;1692930;83;21585;-41
2021/05/16 07:30:39;;;;;;;0.00;0.00;;;;;;;23.29;48.68;100372.06;1686163;83;21625;-47
2021/05/16 07:33:07;;;;;;;0.10;0.08;;;;;;;23.43;47.54;100365.97;1739074;80;21140;-42
2021/05/16 07:35:33;;;;;;;0.10;0.10;;;;;;;23.47;46.77;100369.65;1746966;81;21033;-41
2021/05/16 07:38:00;;;;;;;0.33;0.17;;;;;;;23.46;46.57;100370.80;1749432;81;21052;-47
2021/05/16 07:40:26;;;;;;;0.15;0.10;;;;;;;23.39;46.17;100371.49;1758222;79;21042;-47
2021/05/16 07:42:53;;;;;;;0.00;0.00;;;;;;;23.31;46.55;100373.09;1760668;80;21545;-47
2021/05/16 07:45:20;;;;;;;0.00;0.00;;;;;;;23.28;46.59;100369.66;1718927;82;21494;-41
2021/05/16 07:47:47;;;;;;;0.15;0.15;;;;;;;23.23;46.62;100372.74;1691416;82;21546;-41
2021/05/16 07:50:14;;;;;;;0.20;0.10;;;;;;;23.22;47.17;100378.08;1738139;80;21035;-45
2021/05/16 07:52:41;;;;;;;0.00;0.00;;;;;;;23.28;46.83;100376.63;1764522;80;21042;-41
2021/05/16 07:55:08;;;;;;;0.10;0.10;;;;;;;23.38;46.53;100378.82;1749553;80;21098;-40
2021/05/16 07:57:35;;;;;;;0.30;0.20;;;;;;;23.54;46.97;100375.36;1720588;80;21590;-46
2021/05/16 08:00:06;;;;;;;0.05;0.05;;;;;;;23.73;47.03;100373.73;1713487;83;21583;-41
2021/05/16 08:02:34;;;;;;;0.10;0.10;;;;;;;23.89;45.58;100373.64;1689341;83;21067;-47
2021/05/16 08:05:00;;;;;;;0.00;0.00;;;;;;;23.97;45.39;100369.19;1712455;82;21051;-46
2021/05/16 08:07:27;;;;;;;0.37;0.37;;;;;;;24.09;44.66;100370.19;1705085;82;21049;-42
2021/05/16 08:09:53;;;;;;;0.10;0.10;;;;;;;24.08;43.18;100361.58;1707175;82;21064;-47
2021/05/16 08:12:20;;;;;;;0.20;0.20;;;;;;;23.95;42.90;100359.58;1712172;82;21109;-47
2021/05/16 08:14:48;;;;;;;0.20;0.20;;;;;;;23.87;42.12;100357.84;1713784;82;21599;-42
2021/05/16 08:17:15;;;;;;;0.10;0.10;;;;;;;23.81;43.62;100364.30;1712139;82;21046;-47
2021/05/16 08:19:43;;;;;;;0.20;0.20;;;;;;;23.92;43.60;100356.94;1707997;82;21049;-47
2021/05/16 08:22:10;;;;;;;0.70;0.70;;;;;;;24.13;43.08;100361.27;1683218;83;21187;-43
2021/05/16 08:24:38;;;;;;;0.45;0.45;;;;;;;24.29;42.21;100363.92;1690059;83;21197;-41
2021/05/16 08:27:07;;;;;;;0.10;0.10;;;;;;;24.45;42.79;100359.80;1758539;80;21136;-42
2021/05/16 08:29:37;;;;;;;0.68;0.33;;;;;;;24.62;40.72;100359.86;1742777;80;21046;-41
2021/05/16 08:32:05;;;;;;;0.10;0.10;;;;;;;24.63;41.36;100359.29;1756997;81;21073;-47
2021/05/16 08:34:32;;;;;;;0.10;0.10;;;;;;;24.64;40.59;100362.28;1744428;81;21445;-41
2021/05/16 08:36:59;;;;;;;0.47;0.33;;;;;;;24.61;41.07;100358.86;1756805;81;21058;-47
2021/05/16 08:39:25;;;;;;;0.08;0.08;;;;;;;24.60;41.06;100359.42;1748000;80;21563;-41
2021/05/16 08:41:52;;;;;;;0.00;0.00;;;;;;;24.72;42.00;100360.39;1734532;81;21046;-47
2021/05/16 08:44:20;;;;;;;0.00;0.00;;;;;;;24.94;41.53;100358.70;1749050;80;21084;-42
2021/05/16 08:46:47;;;;;;;0.15;0.05;;;;;;;25.17;41.67;100352.42;1740805;81;21125;-41
2021/05/16 08:49:13;;;;;;;0.00;0.00;;;;;;;25.39;40.85;100345.69;1709764;81;21628;-42
2021/05/16 08:51:44;;;;;;;0.45;0.08;;;;;;;25.53;39.69;100348.64;1729011;81;21035;-40
2021/05/16 08:54:09;;;;;;;0.13;0.13;;;;;;;25.48;38.01;100345.59;1759997;80;21510;-41
2021/05/16 08:56:36;;;;;;;0.00;0.00;;;;;;;25.26;38.92;100340.95;1756681;80;21026;-42
2021/05/16 08:59:03;;;;;;;0.00;0.00;;;;;;;25.16;39.89;100339.61;1758223;80;21452;-41
2021/05/16 09:01:35;;;;;;;0.00;0.00;;;;;;;25.21;40.01;100336.50;1739342;80;21061;-47
2021/05/16 09:03:58;;;;;;;0.10;0.10;;;;;;;25.28;38.39;100328.20;1727957;80;21081;-41
2021/05/16 09:06:33;;;;;;;0.00;0.00;;;;;;;25.19;38.88;100327.69;1680769;84;21464;-47
2021/05/16 09:09:26;;;;;;;0.47;0.28;;;;;;;25.18;39.75;100330.28;1697034;82;21054;-47
2021/05/16 09:11:55;;;;;;;0.00;0.00;;;;;;;25.25;39.16;100326.17;1700557;83;21058;-47
2021/05/16 09:14:51;;;;;;;0.42;0.23;;;;;;;25.27;39.58;100315.41;1738980;81;21585;-46
2021/05/16 09:17:32;;;;;;;0.03;0.03;;;;;;;25.34;38.96;100309.67;1749096;81;21153;-45
2021/05/16 09:20:03;;;;;;;0.10;0.10;;;;;;;25.57;38.49;100306.13;1744174;80;21057;-50
2021/05/16 09:22:44;;;;;;;0.45;0.40;;;;;;;25.73;38.21;100305.27;1757003;80;21093;-50
2021/05/16 09:25:29;;;;;;;0.00;0.00;;;;;;;25.74;37.70;100308.29;1743684;80;21148;-51
2021/05/16 09:28:03;;;;;;;0.28;0.08;;;;;;;25.67;38.11;100305.42;1729906;80;21039;-50
2021/05/16 09:30:30;;;;;;;0.00;0.00;;;;;;;25.68;37.36;100304.22;1698795;82;21037;-50
2021/05/16 09:33:03;;;;;;;0.10;0.00;;;;;;;25.85;37.61;100305.60;1720821;81;21058;-51
2021/05/16 09:35:47;;;;;;;0.10;0.10;;;;;;;26.09;37.26;100301.41;1688796;83;21062;-50
2021/05/16 09:38:19;;;;;;;0.00;0.00;;;;;;;26.33;36.93;100299.14;1668080;83;21059;-50
2021/05/16 09:40:50;;;;;;;0.00;0.00;;;;;;;26.46;36.15;100293.45;1702221;83;21072;-50
2021/05/16 09:43:24;;;;;;;0.00;0.00;;;;;;;26.54;36.84;100297.12;1730704;82;21089;-50
2021/05/16 09:45:58;;;;;;;0.05;0.05;;;;;;;26.55;34.92;100289.70;1753177;80;21097;-51
2021/05/16 09:48:38;;;;;;;0.00;0.00;;;;;;;26.66;36.11;100294.58;1751677;80;21141;-51
2021/05/16 09:51:18;;;;;;;0.00;0.00;;;;;;;26.86;35.18;100290.26;1711067;83;21377;-50
2021/05/16 09:54:06;;;;;;;0.00;0.00;;;;;;;27.00;35.87;100283.31;1752022;80;21093;-49
2021/05/16 09:56:39;;;;;;;0.45;0.30;;;;;;;27.19;34.93;100275.77;1755985;80;21073;-50
2021/05/16 09:59:11;;;;;;;0.03;0.03;;;;;;;27.13;34.18;100282.95;1725088;79;21154;-50
2021/05/16 10:01:38;;;;;;;0.13;0.10;;;;;;;26.79;34.38;100288.22;1750442;80;21077;-49
2021/05/16 10:04:06;;;;;;;0.08;0.08;;;;;;;26.48;32.95;100283.23;1713800;83;21087;-50
2021/05/16 10:06:35;;;;;;;0.10;0.00;;;;;;;26.18;34.51;100289.84;1749517;79;21604;-49
2021/05/16 10:09:03;;;;;;;0.10;0.10;;;;;;;26.05;35.17;100281.56;1736212;81;21665;-50
2021/05/16 10:11:30;;;;;;;0.03;0.00;;;;;;;26.09;35.37;100281.01;1701226;83;21043;-49
2021/05/16 10:14:15;;;;;;;0.00;0.00;;;;;;;26.06;36.75;100269.96;1690906;82;21033;-50
2021/05/16 10:16:46;;;;;;;0.35;0.10;;;;;;;26.14;35.85;100273.03;1726191;81;21071;-50
2021/05/16 10:19:18;;;;;;;0.10;0.10;;;;;;;26.38;35.14;100270.77;1741043;81;21217;-49
2021/05/16 10:21:44;;;;;;;0.00;0.00;;;;;;;26.63;34.73;100271.52;1754674;80;21038;-50
2021/05/16 10:24:16;;;;;;;0.20;0.13;;;;;;;26.91;34.34;100265.25;1751521;81;21196;-49
2021/05/16 10:26:44;;;;;;;0.50;0.08;;;;;;;27.20;33.66;100261.94;1730732;82;21059;-50
2021/05/16 10:29:17;;;;;;;0.00;0.00;;;;;;;27.49;33.10;100267.60;1753259;80;21545;-49
2021/05/16 10:31:54;;;;;;;0.10;0.10;;;;;;;27.63;32.71;100264.81;1753942;80;21009;-50
2021/05/16 10:34:33;;;;;;;0.25;0.00;;;;;;;27.68;32.23;100263.61;1739556;80;21140;-49
2021/05/16 10:37:01;;;;;;;0.00;0.00;;;;;;;27.61;32.41;100269.41;1744461;81;21025;-50
2021/05/16 10:39:45;;;;;;;0.08;0.08;;;;;;;27.62;32.45;100263.19;1690521;83;21046;-49
2021/05/16 10:42:23;;;;;;;0.10;0.10;;;;;;;27.66;31.84;100260.59;1672680;83;21035;-49
2021/05/16 10:45:02;;;;;;;0.72;0.10;;;;;;;27.72;30.66;100255.40;1739236;81;21450;-49
2021/05/16 10:47:53;;;;;;;0.28;0.28;;;;;;;27.58;31.00;100256.80;1725327;81;21636;-49
2021/05/16 10:50:27;;;;;;;0.10;0.10;;;;;;;27.58;31.80;100267.41;1686929;84;21080;-50
2021/05/16 10:53:11;;;;;;;0.05;0.05;;;;;;;27.65;31.34;100259.61;1694539;83;21616;-49
2021/05/16 10:55:44;;;;;;;0.00;0.00;;;;;;;27.72;31.46;100254.00;1734042;82;21119;-50
2021/05/16 10:58:39;;;;;;;0.00;0.00;;;;;;;27.57;31.58;100256.58;1733597;82;21384;-49
2021/05/16 11:01:18;;;;;;;0.00;0.00;;;;;;;27.47;31.54;100251.77;1736348;79;21084;-49
2021/05/16 11:03:58;;;;;;;1.17;0.45;;;;;;;27.45;32.34;100251.57;1748745;80;21073;-49
2021/05/16 11:06:38;;;;;;;0.20;0.20;;;;;;;27.47;31.23;100244.75;1712966;83;21030;-49
2021/05/16 11:09:06;;;;;;;0.20;0.20;;;;;;;27.27;32.59;100237.31;1682698;83;21066;-49
2021/05/16 11:11:42;;;;;;;0.25;0.17;;;;;;;27.11;32.68;100230.66;1753939;79;21386;-49
2021/05/16 11:14:31;;;;;;;0.17;0.17;;;;;;;27.00;32.41;100228.63;1715028;81;21097;-49
2021/05/16 11:17:03;;;;;;;0.00;0.00;;;;;;;26.93;32.77;100224.98;1735559;80;21489;-49
2021/05/16 11:19:32;;;;;;;0.33;0.20;;;;;;;26.88;33.64;100226.20;1729668;81;21405;-49
2021/05/16 11:22:16;;;;;;;0.62;0.23;;;;;;;26.79;32.14;100223.75;1740978;80;21049;-48
2021/05/16 11:24:46;;;;;;;0.42;0.42;;;;;;;26.62;33.67;100216.69;1720708;82;21062;-48
2021/05/16 11:27:22;;;;;;;0.65;0.40;;;;;;;26.68;33.12;100213.70;1732098;81;21463;-48
2021/05/16 11:30:00;;;;;;;0.20;0.20;;;;;;;26.78;32.69;100210.13;1726476;81;22426;-49
2021/05/16 11:32:29;;;;;;;1.05;0.10;;;;;;;26.76;33.12;100206.94;1754272;80;21907;-48
2021/05/16 11:35:15;;;;;;;0.08;0.08;;;;;;;26.70;32.19;100208.51;1712349;82;21062;-47
2021/05/16 11:37:44;;;;;;;0.10;0.00;;;;;;;26.59;32.36;100206.47;1763126;80;21048;-46
2021/05/16 11:40:19;;;;;;;0.00;0.00;;;;;;;26.49;32.90;100205.80;1710118;81;21191;-47
2021/05/16 11:42:46;;;;;;;0.20;0.20;;;;;;;26.52;33.97;100195.20;1766028;81;21138;-46
2021/05/16 11:45:15;;;;;;;0.00;0.00;;;;;;;26.64;33.78;100201.70;1771118;80;21168;-47
2021/05/16 11:47:43;;;;;;;0.10;0.10;;;;;;;26.80;32.69;100197.92;1770855;79;21046;-47
2021/05/16 11:50:11;;;;;;;0.15;0.10;;;;;;;26.83;33.13;100199.13;1755977;80;21157;-46
2021/05/16 11:52:37;;;;;;;0.40;0.40;;;;;;;26.70;33.62;100197.30;1743780;81;21013;-46
2021/05/16 11:55:11;;;;;;;0.10;0.10;;;;;;;26.53;34.01;100198.26;1743523;81;21093;-46
2021/05/16 11:57:45;;;;;;;0.37;0.20;;;;;;;26.39;34.00;100189.16;1761189;80;21065;-47
2021/05/16 12:00:13;;;;;;;0.60;0.60;;;;;;;26.23;34.33;100199.87;1706022;80;21604;-46
2021/05/16 12:02:40;;;;;;;0.10;0.10;;;;;;;25.98;35.32;100192.73;1737878;81;21471;-46
2021/05/16 12:05:08;;;;;;;0.10;0.10;;;;;;;25.73;35.44;100183.54;1737515;81;21016;-46
2021/05/16 12:07:36;;;;;;;0.28;0.10;;;;;;;25.64;36.25;100178.08;1715140;81;21016;-46
2021/05/16 12:10:04;;;;;;;0.10;0.10;;;;;;;25.69;36.18;100171.54;1739598;81;21382;-46
2021/05/16 12:12:30;;;;;;;0.17;0.17;;;;;;;25.77;36.40;100170.98;1700795;82;21807;-46